• Join FlightAware (Why Join?)
  • Login
  • US Flag 
12:38AM EDT


 

Airport Tracker/Info


-or-


 

Live Flight TrackerFlight Track Log ✈ AAL1459 ✈ 05-May-2013 ✈ KBOS - KORD

Flight Track Log - Related Links

Times and Time Zones

All times are in EDT time to prevent confusion due to time zone crossing. See the AAL1459 flight status page for this flight to view local times or setup timezone preferences in your user account.

Time Position Orientation Groundspeed Altitude Reporting Facility
EDT Latitude Longitude Course Direction KTS MPH feet Rate Location/Type
02:22PM 42.3667 -70.9667 304° West 163 188 1,400  Level KA90
02:23PM 42.3833 -70.8833 75° East 226 260 4,100 2,640 Climbing KA90
02:24PM 42.5629 -70.8148 340° North  Level FlightAware Approximate
02:24PM 42.4000 -70.8000 75° East 266 306 7,300  Level KA90
02:25PM 42.6311 -70.9294 308° West  Level FlightAware Approximate
02:25PM 42.4925 -70.7817 North 320 368 10,900  Level Boston Center
02:26PM 42.6854 -71.0580 300° West  Level FlightAware Approximate
02:26PM 42.5458 -70.8592 313° West 269 310 12,600  Level Boston Center
02:27PM 42.7423 -71.1845 304° West  Level FlightAware Approximate
02:27PM 42.6097 -70.9731 307° West 325 374 15,900  Level Boston Center
02:28PM 42.6672 -71.0736 308° West 362 417 18,000 1,560 Climbing Boston Center
02:29PM 42.7397 -71.1992 308° West 375 432 19,100 1,740 Climbing Boston Center
02:30PM 42.7908 -71.3253 299° West 387 445 21,500 2,280 Climbing Boston Center
02:31PM 42.8069 -71.4778 278° West 383 441 23,700 1,860 Climbing Boston Center
02:32PM 42.8164 -71.6306 275° West 396 456 25,300 1,560 Climbing Boston Center
02:33PM 42.8319 -71.7944 277° West 423 487 26,900 1,560 Climbing Boston Center
02:34PM 42.8475 -71.9614 277° West 442 509 28,500 1,560 Climbing Boston Center
02:35PM 42.8628 -72.1314 277° West 451 519 30,100 1,440 Climbing Boston Center
02:36PM 42.8839 -72.3042 280° West 462 532 31,400 1,380 Climbing Boston Center
02:37PM 42.8986 -72.4797 277° West 467 537 32,900 1,500 Climbing Boston Center
02:38PM 42.9067 -72.6469 274° West 467 537 34,400 1,320 Climbing Boston Center
02:39PM 42.9228 -72.8256 277° West 461 531 35,600 1,200 Climbing Boston Center
02:40PM 42.9328 -72.9647 276° West 461 531 36,800 1,020 Climbing Boston Center
02:41PM 42.9547 -73.1550 279° West 461 531 37,900 540 Climbing Boston Center
02:42PM 42.9656 -73.3736 274° West 461 531 38,000  Climbing Boston Center
02:43PM 42.9786 -73.5411 276° West 456 525 38,000 -60 Level Boston Center
02:45PM 42.9972 -73.7431 277° West 456 525 37,900  Descending Boston Center
02:46PM 43.0097 -73.9136 276° West 451 519 38,000  Climbing Boston Center
02:47PM 43.0222 -74.0789 276° West 451 519 38,000 -60 Level Boston Center
02:48PM 43.0358 -74.2781 275° West 445 512 37,900  Descending Boston Center
02:49PM 43.0497 -74.4431 277° West 445 512 38,000  Climbing Boston Center
02:50PM 43.0611 -74.6111 275° West 445 512 38,000  Level Boston Center
02:51PM 43.0703 -74.7792 274° West 445 512 38,000  Level Boston Center
02:52PM 43.0814 -74.9475 275° West 445 512 38,000  Level Boston Center
02:53PM 43.0922 -75.1128 275° West 445 512 38,000  Level Boston Center
02:54PM 43.1050 -75.2811 276° West 445 512 38,000  Level Boston Center
02:55PM 43.1150 -75.4494 275° West 445 512 38,000  Level Boston Center
02:56PM 43.1253 -75.6150 275° West 445 512 38,000  Level Boston Center
02:57PM 43.1336 -75.7606 275° West 445 512 38,000  Level Boston Center
02:59PM 43.1333 -76.0833 270° West 440 506 38,000  Level Toronto Center
03:00PM 43.1500 -76.2500 278° West 440 506 38,000  Level Toronto Center
03:01PM 43.1594 -76.4475 274° West 437 503 38,000  Level Cleveland Center
03:02PM 43.1592 -76.6156 270° West 437 503 38,000  Level Cleveland Center
03:03PM 43.1592 -76.7978 270° West 442 509 38,000  Level Cleveland Center
03:04PM 43.1581 -76.9600 270° West 442 509 38,000  Level Cleveland Center
03:05PM 43.1567 -77.1253 269° West 442 509 38,000  Level Cleveland Center
03:06PM 43.1556 -77.2933 270° West 442 509 38,000  Level Cleveland Center
03:07PM 43.1558 -77.4583 270° West 442 509 38,000  Level Cleveland Center
03:08PM 43.1519 -77.6264 268° West 442 509 38,000  Level Cleveland Center
03:09PM 43.1497 -77.7917 269° West 442 509 38,000  Level Cleveland Center
03:10PM 43.1494 -77.9567 270° West 442 509 38,000  Level Cleveland Center
03:11PM 43.1469 -78.1219 269° West 442 509 38,000  Level Cleveland Center
03:12PM 43.1439 -78.2869 269° West 442 509 38,000  Level Cleveland Center
03:13PM 43.1408 -78.4522 269° West 442 509 38,000  Level Cleveland Center
03:15PM 43.1319 -78.7797 268° West 442 509 38,000  Level Cleveland Center
03:16PM 43.1278 -78.9306 268° West 447 514 38,000  Level Cleveland Center
03:17PM 43.1217 -79.0928 267° West 447 514 38,000  Level Cleveland Center
03:18PM 43.1175 -79.2578 268° West 441 507 38,000  Level Cleveland Center
03:19PM 43.1000 -79.4000 260° West 430 495 38,000  Level Toronto Center
03:20PM 43.1000 -79.5667 270° West 430 495 38,000  Level Toronto Center
03:21PM 43.0833 -79.7167 261° West 430 495 38,000  Level Toronto Center
03:22PM 43.0833 -79.8833 270° West 430 495 38,000  Level Toronto Center
03:23PM 43.0833 -80.0500 270° West 430 495 38,000  Level Toronto Center
03:24PM 43.0667 -80.2333 263° West 430 495 38,000  Level Toronto Center
03:25PM 43.0667 -80.3833 270° West 430 495 38,000  Level Toronto Center
03:26PM 43.0500 -80.5500 262° West 430 495 38,000  Level Toronto Center
03:27PM 43.0500 -80.7000 270° West 430 495 38,000  Level Toronto Center
03:28PM 43.0333 -80.8833 263° West 430 495 38,000  Level Toronto Center
03:29PM 43.0167 -81.0500 262° West 430 495 38,000  Level Toronto Center
03:30PM 43.0167 -81.2000 270° West 430 495 38,000  Level Toronto Center
03:31PM 43.0167 -81.3667 270° West 430 495 38,000  Level Toronto Center
03:32PM 43.0167 -81.5333 270° West 440 506 38,000  Level Toronto Center
03:33PM 43.0167 -81.7000 270° West 440 506 38,000  Level Toronto Center
03:34PM 43.0167 -81.8667 270° West 440 506 38,000  Level Toronto Center
03:35PM 43.0000 -82.0333 262° West 440 506 38,000  Level Toronto Center
03:36PM 43.0000 -82.1833 270° West 440 506 38,000  Level Toronto Center
03:37PM 43.0000 -82.3667 270° West 440 506 38,000  Level Toronto Center
03:38PM 43.0000 -82.5333 270° West 440 506 38,000  Level Toronto Center
03:39PM 43.0039 -82.6839 272° West 442 509 38,000  Level Cleveland Center
03:40PM 42.9964 -82.8483 266° West 442 509 38,000  Level Cleveland Center
03:41PM 42.9908 -83.0186 268° West 442 509 38,000  Level Cleveland Center
03:42PM 42.9872 -83.1831 268° West 442 509 38,000  Level Cleveland Center
03:43PM 42.9794 -83.3472 266° West 442 509 38,000  Level Cleveland Center
03:44PM 42.9731 -83.5172 267° West 442 509 38,000 -420 Level Cleveland Center
03:45PM 42.9689 -83.6817 268° West 447 514 37,200 -900 Descending Cleveland Center
03:46PM 42.9556 -83.8542 264° West 447 514 36,300 -960 Descending Cleveland Center
03:47PM 42.9406 -84.0178 263° West 447 514 35,300 -960 Descending Cleveland Center
03:48PM 42.9231 -84.1814 262° West 447 514 34,400 -1,020 Descending Cleveland Center
03:50PM 42.8953 -84.4769 263° West 436 502 32,400 -840 Descending Chicago Center
03:51PM 42.8778 -84.6397 262° West 435 501 32,000 -240 Descending Chicago Center
03:52PM 42.8611 -84.8039 262° West 437 503 32,000  Level Chicago Center
03:53PM 42.8411 -84.9994 262° West 435 501 32,000 -60 Level Chicago Center
03:54PM 42.8233 -85.1628 262° West 436 502 31,900 -840 Descending Chicago Center
03:55PM 42.8053 -85.3253 261° West 435 501 30,300 -1,740 Descending Chicago Center
03:56PM 42.7875 -85.4878 262° West 434 499 28,400 -1,800 Descending Chicago Center
03:57PM 42.7594 -85.6444 256° West 426 490 26,600 -1,800 Descending Chicago Center
03:58PM 42.7322 -85.7992 257° West 420 483 24,800 -1,800 Descending Chicago Center
03:59PM 42.7047 -85.9497 256° West 412 474 23,000 -1,560 Descending Chicago Center
04:01PM 42.6458 -86.2736 256° West 398 458 20,000 -1,380 Descending Chicago Center
04:02PM 42.6178 -86.4172 255° West 394 453 18,800 -1,200 Descending Chicago Center
04:03PM 42.5897 -86.5681 256° West 408 470 17,500 -1,380 Descending Chicago Center
04:04PM 42.5617 -86.7156 256° West 407 468 16,000 -1,500 Descending Chicago Center
04:05PM 42.5256 -86.8525 250° West 391 450 14,500 -1,500 Descending Chicago Center
04:06PM 42.4889 -86.9889 250° West 385 443 13,000 -1,620 Descending Chicago Center
04:07PM 42.4467 -87.1425 250° West 365 420 11,200 -1,500 Descending Chicago Center
04:08PM 42.4122 -87.2689 250° West 358 412 10,000 -480 Descending Chicago Center
04:10PM 42.3500 -87.4667 247° West 353 406 10,000  Level Chicago TRACON
04:10PM 42.3442 -87.5131 260° West 353 406 10,000  Level Chicago Center
04:11PM 42.2611 -87.6158 223° Southwest 345 397 10,000  Level Chicago Center
04:12PM 42.1850 -87.6964 218° Southwest 346 398 10,000 -300 Level Chicago Center
04:13PM 42.1239 -87.7744 223° Southwest 309 356 9,400 -960 Descending Chicago Center
04:14PM 42.0956 -87.8750 249° West 291 335 8,000 -1,620 Descending Chicago Center
04:15PM 42.0833 -87.9167 248° West 294 338 7,300 -780 Descending Chicago TRACON
04:16PM 42.0500 -88.0167 246° West 288 331 7,000 -180 Descending Chicago TRACON
04:17PM 42.0500 -88.1167 270° West 286 329 7,000  Level Chicago TRACON
04:18PM 42.0475 -88.1944 268° West 268 308 7,000 -720 Level Chicago Center
04:19PM 42.0222 -88.2375 232° Southwest 203 234 5,600 -1,080 Descending Chicago Center
04:20PM 41.9839 -88.2089 151° Southeast 204 235 4,800 -780 Descending Chicago Center